sensor_id;sensor_type;location;lat;lon;timestamp;temperature;humidity
44695;DHT22;32845;59.422;17.930;2024-03-08T00:00:22;-1.80;99.90
44695;DHT22;32845;59.422;17.930;2024-03-08T00:04:53;-1.80;99.90
44695;DHT22;32845;59.422;17.930;2024-03-08T00:09:23;-1.90;99.90
44695;DHT22;32845;59.422;17.930;2024-03-08T00:13:54;-1.90;99.90
44695;DHT22;32845;59.422;17.930;2024-03-08T00:18:25;-2.00;99.90
44695;DHT22;32845;59.422;17.930;2024-03-08T00:22:55;-2.00;99.90
44695;DHT22;32845;59.422;17.930;2024-03-08T00:27:28;-2.10;99.90
44695;DHT22;32845;59.422;17.930;2024-03-08T00:32:01;-2.10;99.90
44695;DHT22;32845;59.422;17.930;2024-03-08T00:36:31;-2.10;99.90
44695;DHT22;32845;59.422;17.930;2024-03-08T00:41:02;-2.20;99.90
44695;DHT22;32845;59.422;17.930;2024-03-08T00:45:33;-2.20;99.90
44695;DHT22;32845;59.422;17.930;2024-03-08T00:50:04;-2.20;99.90
44695;DHT22;32845;59.422;17.930;2024-03-08T00:54:35;-2.30;99.90
44695;DHT22;32845;59.422;17.930;2024-03-08T00:59:08;-2.40;99.90
44695;DHT22;32845;59.422;17.930;2024-03-08T01:03:39;-2.50;99.90
44695;DHT22;32845;59.422;17.930;2024-03-08T01:08:10;-2.50;99.90
44695;DHT22;32845;59.422;17.930;2024-03-08T01:12:42;-2.50;99.90
44695;DHT22;32845;59.422;17.930;2024-03-08T01:17:13;-2.50;99.90
44695;DHT22;32845;59.422;17.930;2024-03-08T01:21:44;-2.50;99.90
44695;DHT22;32845;59.422;17.930;2024-03-08T01:26:14;-2.50;99.90
44695;DHT22;32845;59.422;17.930;2024-03-08T01:30:45;-2.60;99.90
44695;DHT22;32845;59.422;17.930;2024-03-08T01:35:16;-2.60;99.90
44695;DHT22;32845;59.422;17.930;2024-03-08T01:39:47;-2.60;99.90
44695;DHT22;32845;59.422;17.930;2024-03-08T01:44:18;-2.60;99.90
44695;DHT22;32845;59.422;17.930;2024-03-08T01:48:49;-2.70;99.90
44695;DHT22;32845;59.422;17.930;2024-03-08T01:53:22;-2.70;99.90
44695;DHT22;32845;59.422;17.930;2024-03-08T01:57:54;-2.80;99.90
44695;DHT22;32845;59.422;17.930;2024-03-08T02:02:25;-2.80;99.90
44695;DHT22;32845;59.422;17.930;2024-03-08T02:06:57;-2.70;99.90
44695;DHT22;32845;59.422;17.930;2024-03-08T02:11:28;-2.70;99.90
44695;DHT22;32845;59.422;17.930;2024-03-08T02:16:00;-2.70;99.90
44695;DHT22;32845;59.422;17.930;2024-03-08T02:20:30;-2.80;99.90
44695;DHT22;32845;59.422;17.930;2024-03-08T02:25:02;-2.80;99.90
44695;DHT22;32845;59.422;17.930;2024-03-08T02:29:33;-2.80;99.90
44695;DHT22;32845;59.422;17.930;2024-03-08T02:34:04;-2.80;99.90
44695;DHT22;32845;59.422;17.930;2024-03-08T02:38:35;-2.90;99.90
44695;DHT22;32845;59.422;17.930;2024-03-08T02:43:06;-2.90;99.90
44695;DHT22;32845;59.422;17.930;2024-03-08T02:47:36;-2.90;99.90
44695;DHT22;32845;59.422;17.930;2024-03-08T02:52:07;-2.90;99.90
44695;DHT22;32845;59.422;17.930;2024-03-08T02:56:37;-3.00;99.90
44695;DHT22;32845;59.422;17.930;2024-03-08T03:01:08;-3.00;99.90
44695;DHT22;32845;59.422;17.930;2024-03-08T03:05:40;-3.10;99.90
44695;DHT22;32845;59.422;17.930;2024-03-08T03:10:14;-3.10;99.90
44695;DHT22;32845;59.422;17.930;2024-03-08T03:14:47;-3.10;99.90
44695;DHT22;32845;59.422;17.930;2024-03-08T03:19:17;-3.20;99.90
44695;DHT22;32845;59.422;17.930;2024-03-08T03:23:48;-3.20;99.90
44695;DHT22;32845;59.422;17.930;2024-03-08T03:28:19;-3.20;99.90
44695;DHT22;32845;59.422;17.930;2024-03-08T03:32:52;-3.20;99.90
44695;DHT22;32845;59.422;17.930;2024-03-08T03:37:24;-3.30;99.90
44695;DHT22;32845;59.422;17.930;2024-03-08T03:41:55;-3.30;99.90
44695;DHT22;32845;59.422;17.930;2024-03-08T03:46:26;-3.30;99.90
44695;DHT22;32845;59.422;17.930;2024-03-08T03:50:57;-3.30;99.90
44695;DHT22;32845;59.422;17.930;2024-03-08T03:55:28;-3.30;99.90
44695;DHT22;32845;59.422;17.930;2024-03-08T03:59:59;-3.20;99.90
44695;DHT22;32845;59.422;17.930;2024-03-08T04:04:29;-3.20;99.90
44695;DHT22;32845;59.422;17.930;2024-03-08T04:09:00;-3.10;99.90
44695;DHT22;32845;59.422;17.930;2024-03-08T04:13:30;-2.90;99.90
44695;DHT22;32845;59.422;17.930;2024-03-08T04:18:01;-2.80;99.90
44695;DHT22;32845;59.422;17.930;2024-03-08T04:22:32;-2.70;99.90
44695;DHT22;32845;59.422;17.930;2024-03-08T04:27:06;-2.50;99.90
44695;DHT22;32845;59.422;17.930;2024-03-08T04:31:36;-2.40;99.90
44695;DHT22;32845;59.422;17.930;2024-03-08T04:36:08;-2.40;99.90
44695;DHT22;32845;59.422;17.930;2024-03-08T04:40:43;-2.30;99.90
44695;DHT22;32845;59.422;17.930;2024-03-08T04:45:14;-2.20;99.90
44695;DHT22;32845;59.422;17.930;2024-03-08T04:49:45;-2.20;99.90
44695;DHT22;32845;59.422;17.930;2024-03-08T04:54:15;-2.10;99.90
44695;DHT22;32845;59.422;17.930;2024-03-08T04:58:46;-2.10;99.90
44695;DHT22;32845;59.422;17.930;2024-03-08T05:03:19;-2.10;99.90
44695;DHT22;32845;59.422;17.930;2024-03-08T05:07:51;-2.00;99.90
44695;DHT22;32845;59.422;17.930;2024-03-08T05:12:22;-2.00;99.90
44695;DHT22;32845;59.422;17.930;2024-03-08T05:16:52;-2.00;99.90
44695;DHT22;32845;59.422;17.930;2024-03-08T05:21:23;-1.90;99.90
44695;DHT22;32845;59.422;17.930;2024-03-08T05:25:54;-1.90;99.90
44695;DHT22;32845;59.422;17.930;2024-03-08T05:30:24;-1.90;99.90
44695;DHT22;32845;59.422;17.930;2024-03-08T05:34:55;-1.90;99.90
44695;DHT22;32845;59.422;17.930;2024-03-08T05:39:25;-1.90;99.90
44695;DHT22;32845;59.422;17.930;2024-03-08T05:43:56;-1.90;99.90
44695;DHT22;32845;59.422;17.930;2024-03-08T05:48:26;-1.90;99.90
44695;DHT22;32845;59.422;17.930;2024-03-08T05:52:58;-1.80;99.90
44695;DHT22;32845;59.422;17.930;2024-03-08T05:57:28;-1.80;99.90
44695;DHT22;32845;59.422;17.930;2024-03-08T06:01:59;-1.80;99.90
44695;DHT22;32845;59.422;17.930;2024-03-08T06:06:30;-1.70;99.90
44695;DHT22;32845;59.422;17.930;2024-03-08T06:11:00;-1.70;99.90
44695;DHT22;32845;59.422;17.930;2024-03-08T06:15:33;-1.60;99.90
44695;DHT22;32845;59.422;17.930;2024-03-08T06:20:05;-1.60;99.90
44695;DHT22;32845;59.422;17.930;2024-03-08T06:24:40;-1.50;99.90
44695;DHT22;32845;59.422;17.930;2024-03-08T06:29:11;-1.50;99.90
44695;DHT22;32845;59.422;17.930;2024-03-08T06:33:43;-1.40;99.90
44695;DHT22;32845;59.422;17.930;2024-03-08T06:38:13;-1.30;99.90
44695;DHT22;32845;59.422;17.930;2024-03-08T06:42:45;-1.20;99.90
44695;DHT22;32845;59.422;17.930;2024-03-08T06:47:17;-1.20;99.90
44695;DHT22;32845;59.422;17.930;2024-03-08T06:51:48;-1.10;99.90
44695;DHT22;32845;59.422;17.930;2024-03-08T06:56:19;-1.00;99.90
44695;DHT22;32845;59.422;17.930;2024-03-08T07:00:50;-1.00;99.90
44695;DHT22;32845;59.422;17.930;2024-03-08T07:05:23;-0.90;99.90
44695;DHT22;32845;59.422;17.930;2024-03-08T07:09:54;-0.80;99.90
44695;DHT22;32845;59.422;17.930;2024-03-08T07:14:27;-0.70;99.90
44695;DHT22;32845;59.422;17.930;2024-03-08T07:18:57;-0.60;99.90
44695;DHT22;32845;59.422;17.930;2024-03-08T07:23:29;-0.50;99.90
44695;DHT22;32845;59.422;17.930;2024-03-08T07:28:33;-0.40;99.90
44695;DHT22;32845;59.422;17.930;2024-03-08T07:33:04;-0.30;99.90
44695;DHT22;32845;59.422;17.930;2024-03-08T07:37:35;-0.20;99.90
44695;DHT22;32845;59.422;17.930;2024-03-08T07:42:05;-0.10;99.90
44695;DHT22;32845;59.422;17.930;2024-03-08T07:46:36;-0.10;99.90
44695;DHT22;32845;59.422;17.930;2024-03-08T07:51:07;0.00;99.90
44695;DHT22;32845;59.422;17.930;2024-03-08T07:55:39;0.10;99.90
44695;DHT22;32845;59.422;17.930;2024-03-08T08:00:13;0.20;99.90
44695;DHT22;32845;59.422;17.930;2024-03-08T08:04:47;0.30;99.90
44695;DHT22;32845;59.422;17.930;2024-03-08T08:09:18;0.40;99.90
44695;DHT22;32845;59.422;17.930;2024-03-08T08:13:58;0.50;99.90
44695;DHT22;32845;59.422;17.930;2024-03-08T08:18:30;0.50;99.90
44695;DHT22;32845;59.422;17.930;2024-03-08T08:23:00;0.60;99.90
44695;DHT22;32845;59.422;17.930;2024-03-08T08:27:31;0.70;99.90
44695;DHT22;32845;59.422;17.930;2024-03-08T08:32:02;0.80;99.90
44695;DHT22;32845;59.422;17.930;2024-03-08T08:36:33;0.90;99.90
44695;DHT22;32845;59.422;17.930;2024-03-08T08:41:04;1.00;99.90
44695;DHT22;32845;59.422;17.930;2024-03-08T08:45:34;1.20;99.90
44695;DHT22;32845;59.422;17.930;2024-03-08T08:50:05;1.30;99.90
44695;DHT22;32845;59.422;17.930;2024-03-08T08:54:36;1.40;99.90
44695;DHT22;32845;59.422;17.930;2024-03-08T08:59:07;1.50;99.90
44695;DHT22;32845;59.422;17.930;2024-03-08T09:03:38;1.70;99.90
44695;DHT22;32845;59.422;17.930;2024-03-08T09:08:10;1.80;99.90
44695;DHT22;32845;59.422;17.930;2024-03-08T09:12:41;1.90;99.90
44695;DHT22;32845;59.422;17.930;2024-03-08T09:17:12;2.00;99.90
44695;DHT22;32845;59.422;17.930;2024-03-08T09:21:42;2.20;99.90
44695;DHT22;32845;59.422;17.930;2024-03-08T09:26:13;2.30;99.90
44695;DHT22;32845;59.422;17.930;2024-03-08T09:30:45;2.40;99.90
44695;DHT22;32845;59.422;17.930;2024-03-08T09:35:17;2.50;99.90
44695;DHT22;32845;59.422;17.930;2024-03-08T09:39:47;2.60;99.90
44695;DHT22;32845;59.422;17.930;2024-03-08T09:44:18;2.80;99.90
44695;DHT22;32845;59.422;17.930;2024-03-08T09:48:49;2.90;99.90
44695;DHT22;32845;59.422;17.930;2024-03-08T09:53:20;3.10;99.90
44695;DHT22;32845;59.422;17.930;2024-03-08T09:57:53;3.20;99.90
44695;DHT22;32845;59.422;17.930;2024-03-08T10:02:48;3.30;99.90
44695;DHT22;32845;59.422;17.930;2024-03-08T10:07:20;3.50;99.90
44695;DHT22;32845;59.422;17.930;2024-03-08T10:11:55;3.70;99.90
44695;DHT22;32845;59.422;17.930;2024-03-08T10:16:27;3.80;99.90
44695;DHT22;32845;59.422;17.930;2024-03-08T10:21:03;4.00;99.90
44695;DHT22;32845;59.422;17.930;2024-03-08T10:25:36;4.20;99.90
44695;DHT22;32845;59.422;17.930;2024-03-08T10:30:12;4.40;99.90
44695;DHT22;32845;59.422;17.930;2024-03-08T10:34:44;4.60;99.90
44695;DHT22;32845;59.422;17.930;2024-03-08T10:39:23;4.90;99.90
44695;DHT22;32845;59.422;17.930;2024-03-08T10:48:45;7.40;99.90
44695;DHT22;32845;59.422;17.930;2024-03-08T10:53:21;10.30;99.90
44695;DHT22;32845;59.422;17.930;2024-03-08T10:57:53;12.60;99.90
44695;DHT22;32845;59.422;17.930;2024-03-08T11:02:25;14.40;99.90
44695;DHT22;32845;59.422;17.930;2024-03-08T11:07:01;15.60;95.10
44695;DHT22;32845;59.422;17.930;2024-03-08T11:11:36;16.60;91.90
44695;DHT22;32845;59.422;17.930;2024-03-08T11:16:12;17.20;86.90
44695;DHT22;32845;59.422;17.930;2024-03-08T11:20:43;17.60;83.80
44695;DHT22;32845;59.422;17.930;2024-03-08T11:30:07;18.70;75.60
44695;DHT22;32845;59.422;17.930;2024-03-08T11:34:46;19.20;78.60
44695;DHT22;32845;59.422;17.930;2024-03-08T11:39:17;19.70;77.50
44695;DHT22;32845;59.422;17.930;2024-03-08T11:44:02;19.90;73.70
44695;DHT22;32845;59.422;17.930;2024-03-08T11:48:36;20.20;68.00
44695;DHT22;32845;59.422;17.930;2024-03-08T11:53:06;20.50;71.90
44695;DHT22;32845;59.422;17.930;2024-03-08T11:57:37;20.80;70.40
44695;DHT22;32845;59.422;17.930;2024-03-08T12:02:08;21.00;68.80
44695;DHT22;32845;59.422;17.930;2024-03-08T12:06:41;21.00;66.40
44695;DHT22;32845;59.422;17.930;2024-03-08T12:11:12;20.80;68.20
44695;DHT22;32845;59.422;17.930;2024-03-08T12:15:42;20.40;68.10
44695;DHT22;32845;59.422;17.930;2024-03-08T12:20:19;20.00;67.80
44695;DHT22;32845;59.422;17.930;2024-03-08T12:25:05;19.40;69.50
44695;DHT22;32845;59.422;17.930;2024-03-08T12:29:40;18.80;68.70
44695;DHT22;32845;59.422;17.930;2024-03-08T12:34:11;18.40;70.70
44695;DHT22;32845;59.422;17.930;2024-03-08T12:38:48;17.80;70.60
44695;DHT22;32845;59.422;17.930;2024-03-08T12:43:18;16.80;71.90
44695;DHT22;32845;59.422;17.930;2024-03-08T12:47:53;16.10;73.90
44695;DHT22;32845;59.422;17.930;2024-03-08T12:52:23;15.40;76.20
44695;DHT22;32845;59.422;17.930;2024-03-08T12:56:54;15.00;77.80
44695;DHT22;32845;59.422;17.930;2024-03-08T13:01:25;14.90;78.50
44695;DHT22;32845;59.422;17.930;2024-03-08T13:05:56;15.00;78.90
44695;DHT22;32845;59.422;17.930;2024-03-08T13:10:27;15.00;78.80
44695;DHT22;32845;59.422;17.930;2024-03-08T13:14:58;14.90;78.20
44695;DHT22;32845;59.422;17.930;2024-03-08T13:19:28;14.40;79.00
44695;DHT22;32845;59.422;17.930;2024-03-08T13:23:59;13.90;80.30
44695;DHT22;32845;59.422;17.930;2024-03-08T13:28:31;13.50;81.00
44695;DHT22;32845;59.422;17.930;2024-03-08T13:33:06;13.20;83.20
44695;DHT22;32845;59.422;17.930;2024-03-08T13:37:40;13.00;82.80
44695;DHT22;32845;59.422;17.930;2024-03-08T13:42:12;12.80;84.00
44695;DHT22;32845;59.422;17.930;2024-03-08T13:46:47;12.30;84.40
44695;DHT22;32845;59.422;17.930;2024-03-08T13:51:18;12.00;86.00
44695;DHT22;32845;59.422;17.930;2024-03-08T13:55:48;11.80;86.30
44695;DHT22;32845;59.422;17.930;2024-03-08T14:00:19;11.60;86.40
44695;DHT22;32845;59.422;17.930;2024-03-08T14:04:53;11.40;87.20
44695;DHT22;32845;59.422;17.930;2024-03-08T14:09:25;11.10;88.00
44695;DHT22;32845;59.422;17.930;2024-03-08T14:13:56;10.70;89.00
44695;DHT22;32845;59.422;17.930;2024-03-08T14:18:27;10.30;90.10
44695;DHT22;32845;59.422;17.930;2024-03-08T14:22:59;10.00;90.40
44695;DHT22;32845;59.422;17.930;2024-03-08T14:27:30;9.60;90.60
44695;DHT22;32845;59.422;17.930;2024-03-08T14:32:01;9.10;91.30
44695;DHT22;32845;59.422;17.930;2024-03-08T14:36:33;8.50;92.20
44695;DHT22;32845;59.422;17.930;2024-03-08T14:41:04;8.00;93.20
44695;DHT22;32845;59.422;17.930;2024-03-08T14:45:37;7.70;94.10
44695;DHT22;32845;59.422;17.930;2024-03-08T14:50:09;7.20;95.20
44695;DHT22;32845;59.422;17.930;2024-03-08T14:54:39;6.80;96.50
44695;DHT22;32845;59.422;17.930;2024-03-08T14:59:10;6.40;98.00
44695;DHT22;32845;59.422;17.930;2024-03-08T15:03:41;6.10;99.90
44695;DHT22;32845;59.422;17.930;2024-03-08T15:08:13;5.70;99.90
44695;DHT22;32845;59.422;17.930;2024-03-08T15:12:50;5.40;99.90
44695;DHT22;32845;59.422;17.930;2024-03-08T15:17:23;5.10;99.90
44695;DHT22;32845;59.422;17.930;2024-03-08T15:21:54;5.00;99.90
44695;DHT22;32845;59.422;17.930;2024-03-08T15:26:27;4.70;99.90
44695;DHT22;32845;59.422;17.930;2024-03-08T15:30:57;4.40;99.90
44695;DHT22;32845;59.422;17.930;2024-03-08T15:35:35;4.10;99.90
44695;DHT22;32845;59.422;17.930;2024-03-08T15:40:12;3.80;99.90
44695;DHT22;32845;59.422;17.930;2024-03-08T15:44:51;3.60;99.90
44695;DHT22;32845;59.422;17.930;2024-03-08T15:49:21;3.40;99.90
44695;DHT22;32845;59.422;17.930;2024-03-08T15:53:52;3.20;99.90
44695;DHT22;32845;59.422;17.930;2024-03-08T15:58:26;3.10;99.90
44695;DHT22;32845;59.422;17.930;2024-03-08T16:02:57;3.00;99.90
44695;DHT22;32845;59.422;17.930;2024-03-08T16:07:28;2.90;99.90
44695;DHT22;32845;59.422;17.930;2024-03-08T16:11:58;2.80;99.90
44695;DHT22;32845;59.422;17.930;2024-03-08T16:16:29;2.60;99.90
44695;DHT22;32845;59.422;17.930;2024-03-08T16:21:01;2.50;99.90
44695;DHT22;32845;59.422;17.930;2024-03-08T16:25:34;2.40;99.90
44695;DHT22;32845;59.422;17.930;2024-03-08T16:30:06;2.20;99.90
44695;DHT22;32845;59.422;17.930;2024-03-08T16:34:44;2.10;99.90
44695;DHT22;32845;59.422;17.930;2024-03-08T16:39:14;2.10;99.90
44695;DHT22;32845;59.422;17.930;2024-03-08T16:43:46;2.00;99.90
44695;DHT22;32845;59.422;17.930;2024-03-08T16:48:17;1.90;99.90
44695;DHT22;32845;59.422;17.930;2024-03-08T16:52:49;1.90;99.90
44695;DHT22;32845;59.422;17.930;2024-03-08T16:57:21;1.90;99.90
44695;DHT22;32845;59.422;17.930;2024-03-08T17:01:52;1.80;99.90
44695;DHT22;32845;59.422;17.930;2024-03-08T17:06:22;1.80;99.90
44695;DHT22;32845;59.422;17.930;2024-03-08T17:10:53;1.70;99.90
44695;DHT22;32845;59.422;17.930;2024-03-08T17:15:27;1.60;99.90
44695;DHT22;32845;59.422;17.930;2024-03-08T17:19:58;1.60;99.90
44695;DHT22;32845;59.422;17.930;2024-03-08T17:24:29;1.60;99.90
44695;DHT22;32845;59.422;17.930;2024-03-08T17:29:00;1.50;99.90
44695;DHT22;32845;59.422;17.930;2024-03-08T17:33:30;1.50;99.90
44695;DHT22;32845;59.422;17.930;2024-03-08T17:38:06;1.40;99.90
44695;DHT22;32845;59.422;17.930;2024-03-08T17:42:40;1.40;99.90
44695;DHT22;32845;59.422;17.930;2024-03-08T17:47:11;1.40;99.90
44695;DHT22;32845;59.422;17.930;2024-03-08T17:51:42;1.30;99.90
44695;DHT22;32845;59.422;17.930;2024-03-08T17:56:12;1.30;99.90
44695;DHT22;32845;59.422;17.930;2024-03-08T18:00:43;1.30;99.90
44695;DHT22;32845;59.422;17.930;2024-03-08T18:05:14;1.20;99.90
44695;DHT22;32845;59.422;17.930;2024-03-08T18:09:45;1.20;99.90
44695;DHT22;32845;59.422;17.930;2024-03-08T18:14:16;1.20;99.90
44695;DHT22;32845;59.422;17.930;2024-03-08T18:18:47;1.20;99.90
44695;DHT22;32845;59.422;17.930;2024-03-08T18:23:20;1.10;99.90
44695;DHT22;32845;59.422;17.930;2024-03-08T18:27:50;1.10;99.90
44695;DHT22;32845;59.422;17.930;2024-03-08T18:32:21;1.10;99.90
44695;DHT22;32845;59.422;17.930;2024-03-08T18:36:52;1.10;99.90
44695;DHT22;32845;59.422;17.930;2024-03-08T18:41:22;1.10;99.90
44695;DHT22;32845;59.422;17.930;2024-03-08T18:45:57;1.10;99.90
44695;DHT22;32845;59.422;17.930;2024-03-08T18:50:27;1.10;99.90
44695;DHT22;32845;59.422;17.930;2024-03-08T18:55:02;1.00;99.90
44695;DHT22;32845;59.422;17.930;2024-03-08T18:59:32;1.00;99.90
44695;DHT22;32845;59.422;17.930;2024-03-08T19:04:03;0.90;99.90
44695;DHT22;32845;59.422;17.930;2024-03-08T19:08:34;0.90;99.90
44695;DHT22;32845;59.422;17.930;2024-03-08T19:13:07;0.90;99.90
44695;DHT22;32845;59.422;17.930;2024-03-08T19:17:39;0.80;99.90
44695;DHT22;32845;59.422;17.930;2024-03-08T19:22:09;0.80;99.90
44695;DHT22;32845;59.422;17.930;2024-03-08T19:26:40;0.70;99.90
44695;DHT22;32845;59.422;17.930;2024-03-08T19:31:14;0.60;99.90
44695;DHT22;32845;59.422;17.930;2024-03-08T19:35:45;0.60;99.90
44695;DHT22;32845;59.422;17.930;2024-03-08T19:40:21;0.50;99.90
44695;DHT22;32845;59.422;17.930;2024-03-08T19:44:54;0.50;99.90
44695;DHT22;32845;59.422;17.930;2024-03-08T19:49:24;0.40;99.90
44695;DHT22;32845;59.422;17.930;2024-03-08T19:54:00;0.40;99.90
44695;DHT22;32845;59.422;17.930;2024-03-08T19:58:31;0.40;99.90
44695;DHT22;32845;59.422;17.930;2024-03-08T20:03:03;0.40;99.90
44695;DHT22;32845;59.422;17.930;2024-03-08T20:07:35;0.40;99.90
44695;DHT22;32845;59.422;17.930;2024-03-08T20:12:05;0.40;99.90
44695;DHT22;32845;59.422;17.930;2024-03-08T20:16:38;0.40;99.90
44695;DHT22;32845;59.422;17.930;2024-03-08T20:21:08;0.40;99.90
44695;DHT22;32845;59.422;17.930;2024-03-08T20:25:39;0.40;99.90
44695;DHT22;32845;59.422;17.930;2024-03-08T20:30:16;0.40;99.90
44695;DHT22;32845;59.422;17.930;2024-03-08T20:34:52;0.40;99.90
44695;DHT22;32845;59.422;17.930;2024-03-08T20:39:24;0.40;99.90
44695;DHT22;32845;59.422;17.930;2024-03-08T20:43:59;0.40;99.90
44695;DHT22;32845;59.422;17.930;2024-03-08T20:48:33;0.40;99.90
44695;DHT22;32845;59.422;17.930;2024-03-08T20:53:08;0.40;99.90
44695;DHT22;32845;59.422;17.930;2024-03-08T20:57:40;0.40;99.90
44695;DHT22;32845;59.422;17.930;2024-03-08T21:02:15;0.40;99.90
44695;DHT22;32845;59.422;17.930;2024-03-08T21:06:46;0.40;99.90
44695;DHT22;32845;59.422;17.930;2024-03-08T21:11:17;0.40;99.90
44695;DHT22;32845;59.422;17.930;2024-03-08T21:15:48;0.40;99.90
44695;DHT22;32845;59.422;17.930;2024-03-08T21:20:19;0.40;99.90
44695;DHT22;32845;59.422;17.930;2024-03-08T21:24:51;0.40;99.90
44695;DHT22;32845;59.422;17.930;2024-03-08T21:29:22;0.40;99.90
44695;DHT22;32845;59.422;17.930;2024-03-08T21:33:53;0.40;99.90
44695;DHT22;32845;59.422;17.930;2024-03-08T21:38:24;0.40;99.90
44695;DHT22;32845;59.422;17.930;2024-03-08T21:42:56;0.40;99.90
44695;DHT22;32845;59.422;17.930;2024-03-08T21:47:28;0.30;99.90
44695;DHT22;32845;59.422;17.930;2024-03-08T21:51:59;0.30;99.90
44695;DHT22;32845;59.422;17.930;2024-03-08T21:56:34;0.30;99.90
44695;DHT22;32845;59.422;17.930;2024-03-08T22:01:05;0.30;99.90
44695;DHT22;32845;59.422;17.930;2024-03-08T22:05:40;0.20;99.90
44695;DHT22;32845;59.422;17.930;2024-03-08T22:10:11;0.20;99.90
44695;DHT22;32845;59.422;17.930;2024-03-08T22:14:52;0.20;99.90
44695;DHT22;32845;59.422;17.930;2024-03-08T22:19:22;0.10;99.90
44695;DHT22;32845;59.422;17.930;2024-03-08T22:23:55;0.10;99.90
44695;DHT22;32845;59.422;17.930;2024-03-08T22:28:26;0.00;99.90
44695;DHT22;32845;59.422;17.930;2024-03-08T22:32:57;0.00;99.90
44695;DHT22;32845;59.422;17.930;2024-03-08T22:37:27;-0.10;99.90
44695;DHT22;32845;59.422;17.930;2024-03-08T22:41:58;-0.20;99.90
44695;DHT22;32845;59.422;17.930;2024-03-08T22:46:29;-0.20;99.90
44695;DHT22;32845;59.422;17.930;2024-03-08T22:51:05;-0.20;99.90
44695;DHT22;32845;59.422;17.930;2024-03-08T22:55:37;-0.30;99.90
44695;DHT22;32845;59.422;17.930;2024-03-08T23:00:09;-0.30;99.90
44695;DHT22;32845;59.422;17.930;2024-03-08T23:04:48;-0.30;99.90
44695;DHT22;32845;59.422;17.930;2024-03-08T23:09:19;-0.30;99.90
44695;DHT22;32845;59.422;17.930;2024-03-08T23:13:50;-0.40;99.90
44695;DHT22;32845;59.422;17.930;2024-03-08T23:18:21;-0.40;99.90
44695;DHT22;32845;59.422;17.930;2024-03-08T23:22:51;-0.40;99.90
44695;DHT22;32845;59.422;17.930;2024-03-08T23:27:32;-0.40;99.90
44695;DHT22;32845;59.422;17.930;2024-03-08T23:32:03;-0.40;99.90
44695;DHT22;32845;59.422;17.930;2024-03-08T23:36:36;-0.40;99.90
44695;DHT22;32845;59.422;17.930;2024-03-08T23:41:06;-0.40;99.90
44695;DHT22;32845;59.422;17.930;2024-03-08T23:45:37;-0.40;99.90
44695;DHT22;32845;59.422;17.930;2024-03-08T23:50:10;-0.30;99.90
44695;DHT22;32845;59.422;17.930;2024-03-08T23:54:41;-0.30;99.90
44695;DHT22;32845;59.422;17.930;2024-03-08T23:59:11;-0.30;99.90
